Time;durP1;ratioP1;P1;durP2;ratioP2;P2;SDS_P1;SDS_P2;PMS_P1;PMS_P2;Temp;Humidity;BMP_temperature;BMP_pressure;BME280_temperature;BME280_humidity;BME280_pressure;Samples;Min_cycle;Max_cycle;Signal;HPM_P1;HPM_P2
2022/07/17 00:01:27;;;;;;;9.48;3.20;;;13.60;99.90;;;;;;4965277;28;20342;-90
2022/07/17 00:03:53;;;;;;;9.00;2.88;;;13.50;99.90;;;;;;4954958;28;20061;-90
2022/07/17 00:06:19;;;;;;;10.00;2.60;;;13.60;99.90;;;;;;4971916;28;20092;-90
2022/07/17 00:08:45;;;;;;;8.52;2.42;;;13.50;99.90;;;;;;4947305;28;20093;-90
2022/07/17 00:11:10;;;;;;;8.98;2.50;;;13.50;99.90;;;;;;4959312;28;20503;-91
2022/07/17 00:13:36;;;;;;;8.70;2.55;;;13.50;99.90;;;;;;4993172;28;20048;-91
2022/07/17 00:16:02;;;;;;;10.27;2.50;;;13.50;99.90;;;;;;5004442;28;20077;-90
2022/07/17 00:18:28;;;;;;;8.18;2.30;;;13.50;99.90;;;;;;4955567;28;20061;-91
2022/07/17 00:20:54;;;;;;;7.85;2.22;;;13.50;99.90;;;;;;5003723;28;20069;-90
2022/07/17 00:23:19;;;;;;;7.47;2.35;;;13.50;99.90;;;;;;4956186;28;20046;-89
2022/07/17 00:25:46;;;;;;;8.10;2.78;;;13.50;99.90;;;;;;4961576;28;20054;-90
2022/07/17 00:28:12;;;;;;;9.23;3.00;;;13.50;99.90;;;;;;4979074;28;20091;-89
2022/07/17 00:30:38;;;;;;;8.77;2.45;;;13.60;99.90;;;;;;4949831;28;20054;-90
2022/07/17 00:33:04;;;;;;;10.02;2.78;;;13.50;99.90;;;;;;4990694;28;20046;-90
2022/07/17 00:35:30;;;;;;;10.52;2.47;;;13.50;99.90;;;;;;4987637;28;20050;-89
2022/07/17 00:37:56;;;;;;;7.78;2.38;;;13.50;99.90;;;;;;4988063;28;20125;-90
2022/07/17 00:40:23;;;;;;;7.53;2.63;;;13.50;99.90;;;;;;4963693;28;20268;-89
2022/07/17 00:42:49;;;;;;;7.80;2.35;;;13.40;99.90;;;;;;4980349;28;20050;-90
2022/07/17 00:45:15;;;;;;;11.45;2.72;;;13.50;99.90;;;;;;4986609;28;20045;-89
2022/07/17 00:47:57;;;;;;;9.48;2.97;;;13.40;99.90;;;;;;4980096;28;20064;-89
2022/07/17 00:50:29;;;;;;;12.13;3.17;;;13.30;99.90;;;;;;4979305;28;20111;-90
2022/07/17 00:52:56;;;;;;;9.27;2.70;;;13.40;99.90;;;;;;4993697;28;20049;-89
2022/07/17 00:55:22;;;;;;;11.30;3.38;;;13.30;99.90;;;;;;4987572;28;20041;-89
2022/07/17 00:57:49;;;;;;;12.02;2.70;;;13.30;99.90;;;;;;4987115;28;20117;-89
2022/07/17 01:00:18;;;;;;;9.40;2.42;;;13.30;99.90;;;;;;4976737;28;20034;-89
2022/07/17 01:02:48;;;;;;;11.52;2.60;;;13.20;99.90;;;;;;4980055;28;20049;-90
2022/07/17 01:05:15;;;;;;;8.73;2.70;;;13.20;99.90;;;;;;4956588;28;20092;-91
2022/07/17 01:07:41;;;;;;;11.25;3.00;;;13.20;99.90;;;;;;4982963;28;20407;-90
2022/07/17 01:10:07;;;;;;;9.82;2.85;;;13.20;99.90;;;;;;4986838;28;20053;-91
2022/07/17 01:12:33;;;;;;;10.45;2.95;;;13.20;99.90;;;;;;4987581;28;20625;-90
2022/07/17 01:14:59;;;;;;;7.25;2.35;;;13.20;99.90;;;;;;4975353;28;20157;-90
2022/07/17 01:17:25;;;;;;;10.95;2.90;;;13.20;99.90;;;;;;4979329;28;20112;-90
2022/07/17 01:19:52;;;;;;;10.32;2.80;;;13.20;99.90;;;;;;4968523;28;20144;-89
2022/07/17 01:22:17;;;;;;;7.65;2.50;;;13.30;99.90;;;;;;4981278;28;20442;-89
2022/07/17 01:24:43;;;;;;;9.02;2.42;;;13.20;99.90;;;;;;4963185;28;20089;-90
2022/07/17 01:27:09;;;;;;;7.72;2.42;;;13.20;99.90;;;;;;4958768;28;20029;-89
2022/07/17 01:29:39;;;;;;;8.48;2.60;;;13.20;99.90;;;;;;4988478;28;20386;-90
2022/07/17 01:32:05;;;;;;;7.50;2.50;;;13.90;99.90;;;;;;5006147;28;20115;-90
2022/07/17 01:34:31;;;;;;;9.02;2.80;;;13.20;99.90;;;;;;4988981;28;20072;-89
2022/07/17 01:36:57;;;;;;;9.55;2.90;;;13.10;99.90;;;;;;4985414;28;20049;-90
2022/07/17 01:42:08;;;;;;;9.98;2.60;;;13.10;99.90;;;;;;4981781;28;20107;-89
2022/07/17 01:44:34;;;;;;;6.78;2.47;;;13.00;99.90;;;;;;4984554;28;20042;-90
2022/07/17 01:47:00;;;;;;;7.53;2.75;;;13.00;99.90;;;;;;4976120;28;20042;-89
2022/07/17 01:49:26;;;;;;;8.35;2.70;;;13.00;99.90;;;;;;4977264;28;20462;-90
2022/07/17 01:51:51;;;;;;;11.43;2.88;;;13.00;99.90;;;;;;4975628;28;20479;-90
2022/07/17 01:54:17;;;;;;;8.25;2.55;;;12.90;99.90;;;;;;4969846;28;20033;-90
2022/07/17 01:56:43;;;;;;;8.20;2.60;;;12.90;99.90;;;;;;5005767;28;20569;-90
2022/07/17 01:59:09;;;;;;;9.82;3.28;;;12.90;99.90;;;;;;4977457;28;20506;-90
2022/07/17 02:01:34;;;;;;;9.85;2.88;;;12.90;99.90;;;;;;5005060;28;20099;-90
2022/07/17 02:04:00;;;;;;;8.25;2.90;;;12.80;99.90;;;;;;4993822;28;20088;-89
2022/07/17 02:06:26;;;;;;;9.70;3.20;;;12.80;99.90;;;;;;4974951;28;20115;-90
2022/07/17 02:08:52;;;;;;;9.38;3.00;;;12.80;99.90;;;;;;4962551;28;20482;-90
2022/07/17 02:11:18;;;;;;;10.32;3.47;;;12.80;99.90;;;;;;4978045;28;20061;-89
2022/07/17 02:13:43;;;;;;;10.48;3.40;;;12.80;99.90;;;;;;4992163;28;20054;-90
2022/07/17 02:16:09;;;;;;;7.80;3.25;;;12.80;99.90;;;;;;4993909;28;20406;-89
2022/07/17 02:18:36;;;;;;;9.27;3.28;;;12.80;99.90;;;;;;4994993;28;20309;-89
2022/07/17 02:21:02;;;;;;;8.43;3.00;;;12.70;99.90;;;;;;4993934;28;20046;-89
2022/07/17 02:23:28;;;;;;;9.40;3.40;;;12.70;99.90;;;;;;5005900;28;20037;-89
2022/07/17 02:25:54;;;;;;;9.57;3.20;;;12.70;99.90;;;;;;4987628;28;20080;-89
2022/07/17 02:28:20;;;;;;;9.15;3.28;;;12.70;99.90;;;;;;5006240;28;20129;-90
2022/07/17 02:30:47;;;;;;;9.80;3.30;;;12.60;99.90;;;;;;4969496;28;20549;-89
2022/07/17 02:33:12;;;;;;;9.70;3.20;;;12.60;99.90;;;;;;4977619;28;20103;-89
2022/07/17 02:35:38;;;;;;;9.45;3.30;;;12.60;99.90;;;;;;4985222;28;20124;-89
2022/07/17 02:38:04;;;;;;;9.93;3.63;;;12.60;99.90;;;;;;4983933;28;20030;-89
2022/07/17 02:40:30;;;;;;;9.02;3.05;;;12.70;99.90;;;;;;4983693;28;20041;-89
2022/07/17 02:42:56;;;;;;;8.05;3.17;;;12.60;99.90;;;;;;4979775;28;20390;-90
2022/07/17 02:45:24;;;;;;;9.10;3.20;;;12.60;99.90;;;;;;4956421;28;20048;-89
2022/07/17 02:47:50;;;;;;;9.70;3.15;;;12.60;99.90;;;;;;5001332;28;20125;-89
2022/07/17 02:50:16;;;;;;;9.82;3.20;;;12.60;99.90;;;;;;4974644;28;20041;-89
2022/07/17 02:52:43;;;;;;;8.65;3.00;;;12.60;99.90;;;;;;4992782;28;20388;-89
2022/07/17 02:55:10;;;;;;;7.57;2.90;;;12.60;99.90;;;;;;4986176;28;20038;-89
2022/07/17 02:57:37;;;;;;;10.32;3.10;;;12.60;99.90;;;;;;4978636;28;20049;-90
2022/07/17 03:00:09;;;;;;;9.05;2.90;;;12.60;99.90;;;;;;5006963;28;20488;-89
2022/07/17 03:02:35;;;;;;;7.57;2.90;;;12.50;99.90;;;;;;4990726;28;20104;-89
2022/07/17 03:05:01;;;;;;;9.52;3.08;;;12.70;99.90;;;;;;5023578;28;20042;-89
2022/07/17 03:07:26;;;;;;;9.43;2.65;;;12.50;99.90;;;;;;4997304;28;20040;-89
2022/07/17 03:09:52;;;;;;;8.60;2.90;;;12.50;99.90;;;;;;4979368;28;20041;-89
2022/07/17 03:12:18;;;;;;;9.05;2.63;;;12.50;99.90;;;;;;4981884;28;20049;-89
2022/07/17 03:14:43;;;;;;;10.32;2.85;;;12.50;99.90;;;;;;4974515;28;20160;-89
2022/07/17 03:17:09;;;;;;;10.35;3.25;;;12.50;99.90;;;;;;4975750;28;20029;-89
2022/07/17 03:19:35;;;;;;;7.95;2.58;;;12.50;99.90;;;;;;4964118;28;20042;-89
2022/07/17 03:22:01;;;;;;;10.18;3.00;;;12.50;99.90;;;;;;4993253;28;20048;-89
2022/07/17 03:24:26;;;;;;;8.43;2.83;;;12.50;99.90;;;;;;4968776;28;20045;-89
2022/07/17 03:26:52;;;;;;;7.32;2.60;;;12.50;99.90;;;;;;4963194;28;20038;-89
2022/07/17 03:29:18;;;;;;;9.25;2.83;;;12.50;99.90;;;;;;4992360;28;20046;-89
2022/07/17 03:31:45;;;;;;;7.45;2.50;;;12.50;99.90;;;;;;4986734;28;20113;-90
2022/07/17 03:34:11;;;;;;;11.90;3.05;;;12.50;99.90;;;;;;4968679;28;20546;-90
2022/07/17 03:36:36;;;;;;;8.95;3.00;;;12.50;99.90;;;;;;4984860;28;20033;-90
2022/07/17 03:39:02;;;;;;;14.75;3.30;;;12.50;99.90;;;;;;4973922;28;20043;-90
2022/07/17 03:41:28;;;;;;;8.15;2.80;;;12.50;99.90;;;;;;4959137;28;20037;-90
2022/07/17 03:43:54;;;;;;;8.65;3.13;;;12.50;99.90;;;;;;4990590;28;20121;-91
2022/07/17 03:46:20;;;;;;;8.85;2.97;;;12.50;99.90;;;;;;4966332;28;20040;-89
2022/07/17 03:48:46;;;;;;;8.93;3.17;;;12.60;99.90;;;;;;4998562;28;20041;-89
2022/07/17 03:51:12;;;;;;;9.68;3.90;;;12.60;99.90;;;;;;4974659;28;20038;-90
2022/07/17 03:53:41;;;;;;;11.38;4.00;;;13.00;99.90;;;;;;4968942;28;20048;-89
2022/07/17 03:56:07;;;;;;;12.15;4.03;;;12.70;99.90;;;;;;4961439;28;20034;-89
2022/07/17 03:58:33;;;;;;;10.52;3.95;;;12.70;99.90;;;;;;4982212;28;20033;-90
2022/07/17 04:00:59;;;;;;;11.93;4.38;;;12.70;99.90;;;;;;4962051;28;20037;-90
2022/07/17 04:03:25;;;;;;;10.88;3.88;;;12.80;99.90;;;;;;4978767;28;20565;-89
2022/07/17 04:05:51;;;;;;;9.73;3.35;;;12.70;99.90;;;;;;5004804;28;20124;-89
2022/07/17 04:08:18;;;;;;;8.77;3.55;;;12.80;99.90;;;;;;4968616;28;20113;-89
2022/07/17 04:10:44;;;;;;;10.20;2.92;;;12.80;99.90;;;;;;4966043;28;20043;-90
2022/07/17 04:13:10;;;;;;;8.02;2.83;;;12.80;99.90;;;;;;4990204;28;20479;-89
2022/07/17 04:15:49;;;;;;;9.75;3.03;;;12.90;99.90;;;;;;4986750;28;20404;-90
2022/07/17 04:18:32;;;;;;;8.73;3.03;;;12.90;99.90;;;;;;4988989;28;20099;-90
2022/07/17 04:21:05;;;;;;;10.55;3.30;;;12.90;99.90;;;;;;5006129;28;20045;-89
2022/07/17 04:23:31;;;;;;;8.75;2.70;;;12.90;99.90;;;;;;4979096;28;20037;-89
2022/07/17 04:25:58;;;;;;;10.05;2.85;;;12.90;99.90;;;;;;4982016;28;20180;-89
2022/07/17 04:28:23;;;;;;;8.93;2.90;;;12.90;99.90;;;;;;4975725;28;20040;-89
2022/07/17 04:30:49;;;;;;;8.68;2.88;;;12.90;99.90;;;;;;4987968;28;20493;-88
2022/07/17 04:33:15;;;;;;;9.07;2.90;;;12.90;99.90;;;;;;4980617;28;20034;-89
2022/07/17 04:35:41;;;;;;;9.57;2.58;;;12.90;99.90;;;;;;4974370;28;20038;-89
2022/07/17 04:38:08;;;;;;;8.63;2.55;;;12.90;99.90;;;;;;4980984;28;20045;-89
2022/07/17 04:40:36;;;;;;;8.10;3.03;;;13.00;99.90;;;;;;4977809;28;20053;-90
2022/07/17 04:43:02;;;;;;;9.50;2.80;;;13.00;99.90;;;;;;4990196;28;20108;-89
2022/07/17 04:45:28;;;;;;;12.20;2.88;;;13.00;99.90;;;;;;4975423;28;20045;-90
2022/07/17 04:47:54;;;;;;;11.02;2.75;;;13.40;99.90;;;;;;4993630;28;20248;-89
2022/07/17 04:50:20;;;;;;;10.07;2.70;;;13.10;99.90;;;;;;4963630;28;20208;-89
2022/07/17 04:52:46;;;;;;;8.27;2.50;;;13.10;99.90;;;;;;4991880;28;20050;-88
2022/07/17 04:55:12;;;;;;;8.23;2.30;;;13.10;99.90;;;;;;4966689;28;20116;-89
2022/07/17 04:57:37;;;;;;;7.10;2.22;;;13.10;99.90;;;;;;5001145;28;20072;-89
2022/07/17 05:00:08;;;;;;;8.40;2.53;;;13.20;99.90;;;;;;4963282;28;20778;-89
2022/07/17 05:02:34;;;;;;;7.45;2.33;;;13.20;99.90;;;;;;5002341;28;20046;-89
2022/07/17 05:05:01;;;;;;;7.13;2.35;;;13.20;99.90;;;;;;4960195;28;20033;-89
2022/07/17 05:07:27;;;;;;;8.90;2.42;;;13.10;99.90;;;;;;4976924;28;20155;-89
2022/07/17 05:09:53;;;;;;;7.45;2.20;;;13.20;99.90;;;;;;4976394;28;20044;-89
2022/07/17 05:12:19;;;;;;;8.63;2.40;;;13.30;99.90;;;;;;4965480;28;20049;-88
2022/07/17 05:14:44;;;;;;;8.18;2.33;;;13.30;99.90;;;;;;4975869;28;20042;-89
2022/07/17 05:17:11;;;;;;;7.38;2.10;;;13.30;99.90;;;;;;4996814;28;20041;-89
2022/07/17 05:19:37;;;;;;;8.40;2.15;;;13.30;99.90;;;;;;5005074;28;20041;-89
2022/07/17 05:22:04;;;;;;;8.30;2.30;;;13.40;99.90;;;;;;4986202;28;20038;-88
2022/07/17 05:24:30;;;;;;;7.57;2.10;;;13.40;99.90;;;;;;4981693;28;20144;-89
2022/07/17 05:26:55;;;;;;;7.95;2.20;;;13.40;99.90;;;;;;4988297;28;20119;-90
2022/07/17 05:29:21;;;;;;;8.80;2.13;;;13.50;99.90;;;;;;4952969;28;20042;-90
2022/07/17 05:31:47;;;;;;;9.43;2.25;;;13.50;99.90;;;;;;4969636;28;20457;-89
2022/07/17 05:34:13;;;;;;;6.57;2.00;;;13.50;99.90;;;;;;4992689;28;20108;-90
2022/07/17 05:36:38;;;;;;;8.88;2.17;;;13.60;99.90;;;;;;4983816;28;20132;-90
2022/07/17 05:39:04;;;;;;;8.40;2.10;;;13.60;99.90;;;;;;4986503;28;20034;-89
2022/07/17 05:41:30;;;;;;;7.78;2.10;;;13.70;99.90;;;;;;4980578;28;20414;-91
2022/07/17 05:43:55;;;;;;;8.23;2.30;;;13.70;99.90;;;;;;4966624;28;20053;-89
2022/07/17 05:46:21;;;;;;;7.00;2.15;;;13.70;99.90;;;;;;4994801;28;20457;-89
2022/07/17 05:48:47;;;;;;;8.73;2.40;;;13.80;99.90;;;;;;4982797;28;20049;-89
2022/07/17 05:51:13;;;;;;;6.60;1.80;;;13.90;99.90;;;;;;4984422;28;20052;-90
2022/07/17 05:53:38;;;;;;;8.93;2.10;;;13.90;99.90;;;;;;4986833;28;20121;-89
2022/07/17 05:56:04;;;;;;;7.47;2.05;;;14.00;99.90;;;;;;4962974;28;20541;-89
2022/07/17 05:58:30;;;;;;;7.32;2.03;;;14.20;99.90;;;;;;4982670;28;22287;-89
2022/07/17 06:00:55;;;;;;;7.38;2.00;;;14.30;99.90;;;;;;4965511;28;20453;-89
2022/07/17 06:03:21;;;;;;;6.85;2.00;;;14.50;99.90;;;;;;4991441;28;20106;-90
2022/07/17 06:05:47;;;;;;;8.75;2.30;;;14.60;99.90;;;;;;4989630;28;20137;-89
2022/07/17 06:08:13;;;;;;;6.85;1.90;;;14.70;99.90;;;;;;4970921;28;20117;-88
2022/07/17 06:10:38;;;;;;;6.78;2.15;;;14.80;99.90;;;;;;4973795;28;20131;-90
2022/07/17 06:13:05;;;;;;;6.63;2.08;;;14.90;99.90;;;;;;4991391;28;20050;-90
2022/07/17 06:15:30;;;;;;;6.65;1.92;;;15.10;99.90;;;;;;4990122;28;20030;-90
2022/07/17 06:18:00;;;;;;;9.95;2.30;;;15.10;99.90;;;;;;4949084;28;20053;-90
2022/07/17 06:20:26;;;;;;;7.95;2.15;;;15.30;99.90;;;;;;4976684;28;20038;-89
2022/07/17 06:22:52;;;;;;;6.85;1.95;;;15.40;99.90;;;;;;4986915;28;20080;-90
2022/07/17 06:25:21;;;;;;;7.22;2.08;;;15.40;99.90;;;;;;4982445;28;20046;-90
2022/07/17 06:27:47;;;;;;;7.30;2.40;;;15.80;99.90;;;;;;4981150;28;20038;-89
2022/07/17 06:30:19;;;;;;;8.73;2.55;;;15.60;99.90;;;;;;4990495;28;20064;-90
2022/07/17 06:32:44;;;;;;;7.32;2.40;;;15.90;99.90;;;;;;4983768;28;20050;-90
2022/07/17 06:35:11;;;;;;;7.32;1.90;;;16.10;99.90;;;;;;4978326;28;20088;-90
2022/07/17 06:37:37;;;;;;;9.57;2.40;;;16.70;99.90;;;;;;4984211;28;20044;-90
2022/07/17 06:40:03;;;;;;;8.00;2.08;;;16.30;99.90;;;;;;5009313;28;20045;-90
2022/07/17 06:42:29;;;;;;;7.45;1.90;;;16.30;99.90;;;;;;4978561;28;20034;-90
2022/07/17 06:44:58;;;;;;;8.65;2.03;;;16.30;99.90;;;;;;4978627;28;20038;-90
2022/07/17 06:47:23;;;;;;;6.93;1.83;;;16.30;99.90;;;;;;4978118;28;20108;-90
2022/07/17 06:49:49;;;;;;;7.85;2.20;;;16.20;99.90;;;;;;4961859;28;20113;-89
2022/07/17 06:52:15;;;;;;;5.05;1.52;;;16.20;99.90;;;;;;4977381;28;20176;-89
2022/07/17 06:54:41;;;;;;;8.35;2.15;;;16.20;99.90;;;;;;4963403;28;20124;-89
2022/07/17 06:57:07;;;;;;;11.13;2.20;;;16.10;99.90;;;;;;5010652;28;20045;-90
2022/07/17 06:59:33;;;;;;;7.82;1.98;;;16.10;99.90;;;;;;4979013;28;20034;-89
2022/07/17 07:02:01;;;;;;;4.70;1.50;;;16.10;99.90;;;;;;5009463;28;20509;-89
2022/07/17 07:04:27;;;;;;;8.70;1.75;;;16.20;99.90;;;;;;4980070;28;20046;-89
2022/07/17 07:06:53;;;;;;;7.60;1.60;;;16.10;99.90;;;;;;4994176;28;20054;-88
2022/07/17 07:09:18;;;;;;;6.82;1.60;;;16.20;99.90;;;;;;4977391;28;20041;-91
2022/07/17 07:11:44;;;;;;;7.22;1.77;;;16.20;99.90;;;;;;4995715;28;20144;-90
2022/07/17 07:14:10;;;;;;;6.40;1.70;;;16.30;99.90;;;;;;4955295;28;20039;-90
2022/07/17 07:16:36;;;;;;;7.68;1.73;;;15.40;99.90;;;;;;4961886;28;20037;-89
2022/07/17 07:19:03;;;;;;;5.95;1.60;;;16.40;99.90;;;;;;4973201;28;20061;-91
2022/07/17 07:21:29;;;;;;;9.65;2.22;;;16.50;99.90;;;;;;4975799;28;20049;-91
2022/07/17 07:23:55;;;;;;;6.63;1.90;;;16.50;99.90;;;;;;4974280;28;20042;-91
2022/07/17 07:26:21;;;;;;;5.18;1.90;;;16.50;99.90;;;;;;4995971;28;20038;-89
2022/07/17 07:28:47;;;;;;;7.22;1.80;;;16.60;99.90;;;;;;4993903;28;20048;-91
2022/07/17 07:31:13;;;;;;;7.13;1.90;;;16.70;99.90;;;;;;4963495;28;20041;-90
2022/07/17 07:33:39;;;;;;;7.65;1.90;;;16.70;99.90;;;;;;4992713;28;20100;-90
2022/07/17 07:36:05;;;;;;;8.20;1.75;;;16.80;99.90;;;;;;4961153;28;20045;-89
2022/07/17 07:38:31;;;;;;;8.38;2.00;;;16.80;99.90;;;;;;4993761;28;20351;-90
2022/07/17 07:40:57;;;;;;;8.98;1.80;;;16.80;99.90;;;;;;4976738;28;20042;-90
2022/07/17 07:43:23;;;;;;;6.63;1.70;;;16.80;99.90;;;;;;4960788;28;20037;-89
2022/07/17 07:45:49;;;;;;;9.35;2.15;;;17.00;99.90;;;;;;4961654;28;20084;-88
2022/07/17 07:48:15;;;;;;;8.30;1.80;;;17.00;99.90;;;;;;4947882;28;20078;-88
2022/07/17 07:50:41;;;;;;;7.35;1.55;;;17.10;99.90;;;;;;4959196;28;20517;-89
2022/07/17 07:53:07;;;;;;;8.00;2.13;;;17.20;99.90;;;;;;4982046;28;20073;-88
2022/07/17 07:55:32;;;;;;;8.43;2.08;;;17.30;99.90;;;;;;4965259;28;20136;-88
2022/07/17 07:58:10;;;;;;;10.38;2.05;;;17.40;99.90;;;;;;4966441;28;20034;-89
2022/07/17 08:00:37;;;;;;;7.13;1.95;;;17.50;99.90;;;;;;5002162;28;20041;-89
2022/07/17 08:03:03;;;;;;;9.40;2.15;;;17.50;99.90;;;;;;4951636;28;20049;-88
2022/07/17 08:05:30;;;;;;;5.30;1.80;;;17.50;99.90;;;;;;4971241;28;20064;-89
2022/07/17 08:07:56;;;;;;;9.90;1.90;;;17.50;99.90;;;;;;5008028;28;20050;-89
2022/07/17 08:10:22;;;;;;;6.60;1.70;;;17.50;99.90;;;;;;4989159;28;20053;-89
2022/07/17 08:12:47;;;;;;;7.93;1.95;;;17.60;99.90;;;;;;4956048;28;20139;-89
2022/07/17 08:15:15;;;;;;;5.10;1.60;;;17.70;99.90;;;;;;4971403;28;20046;-88
2022/07/17 08:17:41;;;;;;;9.93;2.40;;;17.90;99.90;;;;;;4949478;28;20038;-88
2022/07/17 08:20:08;;;;;;;7.95;1.80;;;18.10;99.90;;;;;;4960331;28;20518;-89
2022/07/17 08:22:33;;;;;;;6.70;1.65;;;18.20;99.90;;;;;;4982484;28;20122;-88
2022/07/17 08:24:59;;;;;;;9.93;1.90;;;18.30;99.90;;;;;;4949656;28;20113;-88
2022/07/17 08:27:25;;;;;;;7.38;1.80;;;18.30;99.90;;;;;;4967016;28;20038;-88
2022/07/17 08:29:50;;;;;;;8.50;1.80;;;18.40;99.90;;;;;;4956365;28;20034;-88
2022/07/17 08:32:16;;;;;;;7.90;2.00;;;18.60;99.90;;;;;;4965777;28;20038;-89
2022/07/17 08:34:42;;;;;;;7.13;1.65;;;18.60;99.90;;;;;;4951344;28;20030;-88
2022/07/17 08:37:07;;;;;;;7.55;1.75;;;18.60;99.90;;;;;;5004538;28;20042;-88
2022/07/17 08:39:33;;;;;;;7.28;1.70;;;18.70;99.90;;;;;;4955280;28;20494;-88
2022/07/17 08:42:02;;;;;;;6.00;1.63;;;18.70;99.90;;;;;;4972065;28;20050;-88
2022/07/17 08:44:28;;;;;;;9.18;2.15;;;18.80;99.90;;;;;;4972135;28;20482;-89
2022/07/17 08:46:54;;;;;;;5.47;1.63;;;18.80;99.90;;;;;;4954187;28;20134;-89
2022/07/17 08:49:22;;;;;;;8.68;1.77;;;18.80;99.90;;;;;;4972462;28;20042;-89
2022/07/17 08:51:48;;;;;;;8.35;1.75;;;18.90;99.90;;;;;;4989213;28;20344;-89
2022/07/17 08:54:14;;;;;;;6.35;1.83;;;19.00;99.90;;;;;;4988513;28;20038;-90
2022/07/17 08:56:40;;;;;;;7.57;1.98;;;19.10;99.90;;;;;;5002944;28;20069;-89
2022/07/17 08:59:06;;;;;;;8.07;1.92;;;19.20;99.90;;;;;;4988324;28;20046;-89
2022/07/17 09:01:32;;;;;;;8.10;1.90;;;19.30;99.90;;;;;;4973073;28;20042;-90
2022/07/17 09:04:06;;;;;;;5.30;1.70;;;19.40;99.90;;;;;;4960924;28;20048;-89
2022/07/17 09:06:33;;;;;;;5.93;1.58;;;19.50;99.90;;;;;;4976934;28;20216;-89
2022/07/17 09:09:10;;;;;;;8.52;1.77;;;19.50;99.90;;;;;;4972292;28;20050;-87
2022/07/17 09:11:50;;;;;;;7.40;1.70;;;19.60;99.90;;;;;;5011162;28;20054;-89
2022/07/17 09:14:18;;;;;;;6.78;1.85;;;19.60;99.90;;;;;;4969743;28;20109;-89
2022/07/17 09:16:52;;;;;;;7.30;1.75;;;19.60;99.90;;;;;;4971263;28;20093;-89
2022/07/17 09:19:29;;;;;;;3.97;1.35;;;19.60;99.90;;;;;;4980263;28;20034;-89
2022/07/17 09:22:16;;;;;;;6.72;1.88;;;19.60;99.90;;;;;;5005130;28;20046;-89
2022/07/17 09:24:55;;;;;;;7.03;1.80;;;19.70;99.90;;;;;;4970970;28;20038;-90
2022/07/17 09:27:24;;;;;;;4.93;1.48;;;19.80;99.90;;;;;;5021914;28;20042;-90
2022/07/17 09:29:50;;;;;;;5.30;1.50;;;19.90;99.90;;;;;;5005165;28;20100;-89
2022/07/17 09:32:21;;;;;;;6.38;1.60;;;20.00;99.90;;;;;;5004325;28;20986;-90
2022/07/17 09:34:48;;;;;;;8.07;1.70;;;20.10;99.90;;;;;;4988434;28;20324;-90
2022/07/17 09:37:15;;;;;;;6.25;1.55;;;20.20;99.90;;;;;;5000975;28;20042;-89
2022/07/17 09:39:41;;;;;;;4.78;1.63;;;20.30;99.90;;;;;;5005430;28;20042;-92
2022/07/17 09:42:07;;;;;;;6.43;1.70;;;20.30;99.90;;;;;;5003241;28;20121;-91
2022/07/17 09:44:33;;;;;;;6.93;1.75;;;20.30;99.90;;;;;;4972839;28;20078;-91
2022/07/17 09:47:01;;;;;;;3.95;1.23;;;20.40;99.90;;;;;;4973882;28;20042;-91
2022/07/17 09:49:28;;;;;;;8.45;1.80;;;20.40;99.90;;;;;;5022319;28;20515;-92
2022/07/17 09:51:54;;;;;;;7.28;1.60;;;20.50;99.90;;;;;;4954434;28;20285;-91
2022/07/17 09:54:23;;;;;;;4.95;1.50;;;20.50;99.90;;;;;;4982159;28;20042;-91
2022/07/17 09:56:58;;;;;;;6.97;1.50;;;20.30;99.90;;;;;;4982266;28;20066;-92
2022/07/17 09:59:29;;;;;;;7.32;1.90;;;20.60;99.90;;;;;;4998472;28;20114;-91
2022/07/17 10:01:55;;;;;;;7.50;1.65;;;20.60;99.90;;;;;;4973543;28;20042;-91
2022/07/17 10:04:21;;;;;;;6.65;1.80;;;20.70;99.90;;;;;;4978501;28;20053;-91
2022/07/17 10:06:47;;;;;;;7.78;1.75;;;20.80;99.90;;;;;;4972612;28;20034;-92
2022/07/17 10:09:13;;;;;;;7.45;2.00;;;20.90;99.90;;;;;;5005803;28;20104;-90
2022/07/17 10:11:41;;;;;;;8.48;1.52;;;21.00;99.90;;;;;;4963246;28;20131;-92
2022/07/17 10:14:12;;;;;;;4.80;1.58;;;21.00;99.90;;;;;;4961205;28;20034;-90
2022/07/17 10:16:39;;;;;;;5.88;1.80;;;21.10;99.90;;;;;;4972327;28;20554;-88
2022/07/17 10:19:21;;;;;;;5.00;1.73;;;21.20;99.90;;;;;;4976324;28;21099;-90
2022/07/17 10:21:54;;;;;;;5.45;1.40;;;21.20;99.90;;;;;;5000756;28;20052;-89
2022/07/17 10:24:19;;;;;;;6.20;1.63;;;21.20;99.90;;;;;;4988096;28;20046;-89
2022/07/17 10:26:48;;;;;;;7.03;1.95;;;21.50;99.90;;;;;;4975641;28;20038;-88
2022/07/17 10:29:35;;;;;;;5.55;1.52;;;21.50;99.90;;;;;;4942875;28;20053;-89
2022/07/17 10:32:13;;;;;;;5.55;1.50;;;21.60;99.90;;;;;;4974899;28;20040;-90
2022/07/17 10:34:47;;;;;;;6.00;1.70;;;21.70;99.90;;;;;;4976506;28;20050;-90
2022/07/17 10:37:15;;;;;;;7.78;1.75;;;21.70;99.90;;;;;;4978561;28;20034;-91
2022/07/17 10:39:55;;;;;;;6.60;1.77;;;21.80;99.90;;;;;;4974228;28;20117;-90
2022/07/17 10:42:39;;;;;;;6.95;1.60;;;21.90;99.90;;;;;;4995068;28;20122;-90
2022/07/17 10:45:07;;;;;;;7.10;1.80;;;21.90;99.90;;;;;;4976361;28;20038;-90
2022/07/17 10:48:01;;;;;;;6.47;1.45;;;21.90;99.90;;;;;;4980641;28;20047;-90
2022/07/17 10:50:40;;;;;;;5.85;1.85;;;22.00;99.90;;;;;;5001933;28;20116;-90
2022/07/17 10:53:17;;;;;;;5.30;1.50;;;21.90;99.90;;;;;;4975619;28;20038;-89
2022/07/17 10:55:48;;;;;;;5.78;1.73;;;21.90;99.90;;;;;;4973033;28;20545;-91
2022/07/17 10:58:32;;;;;;;6.20;1.73;;;22.00;99.90;;;;;;4971469;28;20046;-88
2022/07/17 11:01:12;;;;;;;6.55;1.73;;;22.00;99.90;;;;;;4982447;28;20043;-91
2022/07/17 11:03:51;;;;;;;4.85;1.60;;;22.20;99.90;;;;;;4968369;28;20048;-91
2022/07/17 11:06:23;;;;;;;5.63;1.60;;;22.20;99.90;;;;;;4978229;28;20445;-90
2022/07/17 11:09:01;;;;;;;5.88;1.80;;;22.30;99.90;;;;;;4987641;28;20424;-89
2022/07/17 11:11:45;;;;;;;5.90;1.85;;;22.40;99.90;;;;;;4972064;28;20563;-89
2022/07/17 11:14:21;;;;;;;5.40;1.85;;;22.50;99.90;;;;;;4986133;28;20078;-90
2022/07/17 11:16:57;;;;;;;5.93;1.70;;;22.60;99.90;;;;;;4974702;28;20066;-90
2022/07/17 11:19:30;;;;;;;5.75;1.65;;;22.70;99.90;;;;;;4989789;28;20043;-90
2022/07/17 11:21:58;;;;;;;7.30;1.88;;;22.80;99.90;;;;;;4974682;28;20042;-91
2022/07/17 11:24:26;;;;;;;6.80;1.70;;;22.90;99.90;;;;;;4974538;28;20046;-89
2022/07/17 11:26:52;;;;;;;5.18;1.50;;;22.90;99.90;;;;;;4991100;28;20077;-89
2022/07/17 11:29:20;;;;;;;6.40;1.70;;;23.00;99.90;;;;;;4973470;28;20281;-89
2022/07/17 11:31:45;;;;;;;7.00;1.67;;;23.00;99.90;;;;;;4990925;28;20065;-89
2022/07/17 11:34:12;;;;;;;9.85;1.80;;;23.10;99.90;;;;;;4958322;28;20535;-88
2022/07/17 11:36:41;;;;;;;4.88;1.65;;;23.10;99.90;;;;;;4958183;28;20401;-89
2022/07/17 11:39:18;;;;;;;5.82;1.80;;;23.20;99.90;;;;;;4990107;28;20407;-89
2022/07/17 11:41:46;;;;;;;6.63;1.92;;;23.20;99.90;;;;;;4990753;28;20050;-89
2022/07/17 11:44:18;;;;;;;7.35;2.15;;;23.10;99.90;;;;;;4989899;28;20038;-90
2022/07/17 11:46:45;;;;;;;8.00;1.73;;;22.90;99.90;;;;;;4973742;28;20038;-89
2022/07/17 11:49:22;;;;;;;6.78;1.95;;;22.70;99.90;;;;;;4954258;28;20094;-89
2022/07/17 11:51:48;;;;;;;6.03;1.90;;;22.70;99.90;;;;;;4959810;28;20060;-88
2022/07/17 11:54:15;;;;;;;6.03;1.80;;;22.50;99.90;;;;;;4990305;28;20122;-89
2022/07/17 11:56:43;;;;;;;5.95;1.67;;;22.40;99.90;;;;;;4958151;28;20046;-90
2022/07/17 11:59:10;;;;;;;7.05;1.90;;;22.60;99.90;;;;;;4973011;28;20484;-89
2022/07/17 12:01:44;;;;;;;5.53;1.75;;;22.80;99.90;;;;;;4989900;28;20082;-90
2022/07/17 12:04:14;;;;;;;7.68;1.98;;;22.90;99.90;;;;;;4973784;28;20034;-89
2022/07/17 12:06:40;;;;;;;5.68;1.77;;;23.10;99.90;;;;;;4973699;28;20084;-90
2022/07/17 12:09:07;;;;;;;7.35;1.85;;;23.20;99.90;;;;;;4973012;28;20073;-89
2022/07/17 12:11:44;;;;;;;5.68;1.90;;;23.40;99.90;;;;;;4957492;28;20058;-91
2022/07/17 12:14:10;;;;;;;7.90;1.95;;;23.60;99.90;;;;;;4957862;28;20054;-91
2022/07/17 12:16:37;;;;;;;8.18;2.00;;;23.60;99.90;;;;;;4989748;28;20495;-88
2022/07/17 12:19:15;;;;;;;4.35;1.83;;;23.50;99.90;;;;;;4968180;28;20042;-89
2022/07/17 12:22:02;;;;;;;8.13;1.90;;;23.60;99.90;;;;;;4989986;28;20042;-89
2022/07/17 12:24:39;;;;;;;6.25;1.85;;;23.80;99.90;;;;;;4975957;28;20180;-88
2022/07/17 12:27:07;;;;;;;6.10;1.67;;;23.90;99.90;;;;;;4992382;28;20127;-89
2022/07/17 12:29:33;;;;;;;5.28;1.80;;;23.80;99.90;;;;;;4975166;28;20050;-90
2022/07/17 12:32:06;;;;;;;5.40;1.63;;;23.90;99.90;;;;;;4973424;28;20121;-91
2022/07/17 12:34:32;;;;;;;;;;;24.10;99.90;;;;;;4978373;28;20034;-91
2022/07/17 12:36:58;;;;;;;5.97;1.48;;;24.30;99.90;;;;;;4972365;28;19925;-92
2022/07/17 12:39:23;;;;;;;6.70;1.80;;;24.30;99.90;;;;;;4973416;28;20042;-90
2022/07/17 12:41:49;;;;;;;5.15;1.70;;;24.30;99.90;;;;;;4963844;28;20042;-88
2022/07/17 12:44:15;;;;;;;6.38;1.90;;;24.20;99.90;;;;;;4973913;28;20567;-90
2022/07/17 12:46:41;;;;;;;6.93;1.80;;;24.10;99.90;;;;;;4941542;28;20438;-90
2022/07/17 12:49:06;;;;;;;6.35;1.80;;;24.20;99.90;;;;;;4958723;28;20045;-89
2022/07/17 12:51:32;;;;;;;6.53;1.70;;;24.20;99.90;;;;;;4955429;28;20077;-89